Saint Clair, Minnesota
Current Conditions -  °F | °C
As of 1:15 PM on Friday 21 Nov 2014 (Local Time) from KMKT Reporting Station
Clear Clear  
Wind Chill: 15°   Ceiling: Unl
Heat Index: 27°   Visibility: 10mi
Dew Point: 16°   Wind: 14mph
Humidity: 64%   Direction: 170°S
Pressure: 30.06"   Gusts: 28mph
Location:  44.08°N, 93.86°W
Report Text: KMKT 211915Z AUTO 17012G24KT 10SM CLR M03/M09 A3006 RMK AO1
Loading
Personal Weather Stations






























Interactive Weather Map New forecast layout! Learn more

10-Day Weather Forecast

Advertisements
Track Severe Weather on mobile